CSCL Fuzhou — ELYA7 — position and weather

sailwx.info

Track history (hours):
 
Tides and Currents Weather Stations Pressure Air Temp Water Temp Dewpoint Dewpoint Depression Visibility Wind Speed Wind Dir Waves Ship Positions

CSCL Fuzhou

Last reported at 2016-Jun-13 22:28 UTC. Time now 2016-Jun-27 11:28 UTC.
Position N 01°58' E 102°13'.
Warning: this ship's position is 13 days out of date.

Length 207.4 m; beam 29.8 m; draft 11.4 m.

Type: Ship (hazmat cat A). MMSI: 636016483.

Date/timePositionNaut miles runAvg speedWind from/ knotsBaromVisibWave heightAir tempDewpointWater temp
2016-Jun-13 22:28N 01°58' E 102°13'101 2.3
2016-Jun-12 02:31N 01°16' E 103°45'0 0.2
2016-Jun-12 01:30N 01°17' E 103°45'0 0.0
2016-Jun-12 00:24N 01°17' E 103°45'0 0.0
2016-Jun-11 22:18N 01°17' E 103°45'0 0.0
2016-Jun-11 21:33N 01°17' E 103°45'0 0.0
2016-Jun-11 19:30N 01°17' E 103°45'0 0.0
2016-Jun-11 18:30N 01°17' E 103°45'0 0.0
2016-Jun-11 16:27N 01°17' E 103°45'0 0.0
2016-Jun-11 14:30N 01°17' E 103°45'0 0.3
2016-Jun-11 13:33N 01°17' E 103°45'1 0.6
2016-Jun-11 12:33N 01°16' E 103°45'6 6.0
2016-Jun-11 11:33N 01°13' E 103°40'78 2.5
2016-Jun-10 04:13N 01°47' E 102°30'914.1
2016-Jun-10 03:33N 01°50' E 102°22'5713.2
2016-Jun-09 23:13N 02°25' E 101°36'  
Track history (hours):
 
Tides and Currents Weather Stations Pressure Air Temp Water Temp Dewpoint Dewpoint Depression Visibility Wind Speed Wind Dir Waves Ship Positions

CSCL Fuzhou

Last reported at 2016-Jun-13 22:28 UTC. Time now 2016-Jun-27 11:28 UTC.
Position N 01°58' E 102°13'.
Warning: this ship's position is 13 days out of date.

Length 207.4 m; beam 29.8 m; draft 11.4 m.

Type: Ship (hazmat cat A). MMSI: 636016483.

Date/timePositionNaut miles runAvg speedWind from/ knotsBaromVisibWave heightAir tempDewpointWater temp
2016-Jun-13 22:28N 01°58' E 102°13'101 2.3
2016-Jun-12 02:31N 01°16' E 103°45'0 0.2
2016-Jun-12 01:30N 01°17' E 103°45'0 0.0
2016-Jun-12 00:24N 01°17' E 103°45'0 0.0
2016-Jun-11 22:18N 01°17' E 103°45'0 0.0
2016-Jun-11 21:33N 01°17' E 103°45'0 0.0
2016-Jun-11 19:30N 01°17' E 103°45'0 0.0
2016-Jun-11 18:30N 01°17' E 103°45'0 0.0
2016-Jun-11 16:27N 01°17' E 103°45'0 0.0
2016-Jun-11 14:30N 01°17' E 103°45'0 0.3
2016-Jun-11 13:33N 01°17' E 103°45'1 0.6
2016-Jun-11 12:33N 01°16' E 103°45'6 6.0
2016-Jun-11 11:33N 01°13' E 103°40'78 2.5
2016-Jun-10 04:13N 01°47' E 102°30'914.1
2016-Jun-10 03:33N 01°50' E 102°22'5713.2
2016-Jun-09 23:13N 02°25' E 101°36'  

Dump ship's entire track history